Roberto Viana

Recruteur en chef - Criciuma
3 Avr 2027
Samedi
Processus

Personnalité

Adaptabilité (16) Ambition (6) Controverse (2) Loyauté (2) Pression (6) Professionnalisme (12) Sportivité (20) Tempérament (17)

Profil

Style d'entraînement Démocratique
Diplôme Continental C
Détermination 6
Gestion des joueurs 10
Motivation 12
Discipline 7
Satisfaction professionnelle
100%
Fatigue
0%
Rôle Recruteur en chef
Salaire 16.9K p/s
Contrat 14.03.2030

Performance

Comportement Bon
Efficacité de l'entraînement
48%
Développement des joueurs
20%
Prévention des blessures
50%
Mise en place tactique
50%

Événements récents

A participé à une réunion de recrutement maintenant
A participé à une réunion de recrutement maintenant
A évalué un joueur maintenant
A participé à une réunion de recrutement 7j
A participé à une réunion de recrutement 7j
A évalué un joueur 7j
A évalué un joueur 7j
A évalué un joueur 7j

Suivi en cours

178
Joueur Club Statut Capacité Confiance Observé Dernière observation Dernier vote
Luis Fernando Santa Clara Actif 101 / 99 40% 4 02.04.2027 -
Sifiso Dala Platinum Stars Actif 93 / 87 40% 3 02.04.2027 -
Serge Daura Gazelle Garoua Actif 101 / 92 40% 4 02.04.2027 -
Kelian Baruti Liamba Estoril Praia Actif 98 / 92 40% 4 31.03.2027 -
Uchenna Ogundu FC Augsburg Actif 124 / 134 40% 1 31.03.2027 -
Jonathan Acquah WAFA Actif 83 / 75 40% 10 30.03.2027 -
Anas Alaoui Lecco Actif 88 / 102 40% 2 30.03.2027 -
Marcel Reguła Zaglebie Actif 108 / 110 40% 4 28.03.2027 -
Godbless Ayeke New Edubiase United Actif 75 / 74 40% 4 28.03.2027 -
Ruslan Myalkovskiy Lokomotiv Moscow Actif 93 / 102 40% 1 28.03.2027 -
Rodolfo Moreno Veracruz Actif 101 / 102 40% 8 26.03.2027 -
Dani Ángel Crawley Town Actif 100 / 98 40% 3 26.03.2027 -
Mathis Jangeal Famalicao Actif 105 / 107 40% 1 26.03.2027 -
Naledi Hlongwane Victoria United Actif 91 / 107 40% 6 25.03.2027 -
Yannik Wagner Heidenheim Actif 101 / 102 40% 2 25.03.2027 -
Evagoras Charalabous Anorthosis Actif 101 / 106 40% 2 25.03.2027 -
Samy Merheg Alverca Actif 115 / 112 40% 6 22.03.2027 -
Toni Tamarit Alverca Actif 120 / 122 40% 10 21.03.2027 -
Matvii Burenko Vorskla Actif 85 / 87 40% 4 21.03.2027 -
Dominik Baumgartner Mattersburg Actif 102 / 110 40% 1 20.03.2027 -
Markus Jensen Nacional Actif 103 / 117 40% 6 18.03.2027 -
Prince Chibuzor Emmanuel Zlin Actif 88 / 96 40% 2 18.03.2027 -
Tiago Pucciarelli FK Senica Actif 103 / 101 40% 10 16.03.2027 -
Roberto Iliev Slavia Sofia Actif 101 / 107 40% 5 16.03.2027 -
Ciprian Coman Pandurii Actif 118 / 113 40% 6 13.03.2027 -
Luke Baartman Chippa United Actif 101 / 113 40% 7 13.03.2027 -
Nathan Mbala FC Metz Actif 94 / 103 40% 3 12.03.2027 -
Uriël Van Aalst Willem II Actif 97 / 108 40% 6 12.03.2027 -
Moslem Anatouf ES Setif Actif 80 / 88 40% 3 11.03.2027 -
Dramane Kamagaté USM Alger Actif 102 / 107 40% 6 10.03.2027 -
Matvii Ponomarenko Dynamo Kyiv Actif 116 / 119 40% 5 09.03.2027 -
Rudi Almeida Famalicao Actif 81 / 92 40% 2 08.03.2027 -
Mattia Esposito Sorrento Actif 86 / 95 40% 2 08.03.2027 -
Dilan Neves Benfica Actif 75 / 92 40% 3 05.03.2027 -
Ichem Ferrah Pisa Actif 107 / 120 40% 1 05.03.2027 -
David Kalokoh Ajax Actif 120 / 126 40% 2 03.03.2027 -
Iwan Morgan Grimsby Town Actif 102 / 108 40% 2 28.02.2027 -
Maksym Uhryniuk Nyva Actif 79 / 83 40% 1 28.02.2027 -
Alagie Wally Veres Actif 82 / 101 40% 1 26.02.2027 -
Mateus Mide Porto Actif 99 / 105 40% 2 25.02.2027 -
Sonny Finch Grimsby Town Actif 88 / 95 40% 1 23.02.2027 -
Yacine Goudjil MC Oran Actif 92 / 103 40% 2 22.02.2027 -
Ben Ahmed Kohili Paradou Actif 112 / 105 40% 1 22.02.2027 -
Julián Vignolo Toulouse FC Actif 100 / 110 40% 1 20.02.2027 -
Anestis Mythou PAOK Actif 98 / 98 40% 2 19.02.2027 -
Luther Zwane Platinum Stars Actif 112 / 115 40% 7 17.02.2027 -
Joffrey Ngambaka Nguba Strogino Actif 82 / 77 40% 1 17.02.2027 -
Daniil Tepliakov Metalist Actif 95 / 86 40% 1 16.02.2027 -
Karem Zoabi Torreense Actif 95 / 105 40% 2 13.02.2027 -
Ognjen Bondžulić Mladost Lucani Actif 97 / 102 40% 1 11.02.2027 -
Asanele Shibe Inter Allies Actif 66 / 72 40% 2 10.02.2027 -
Dimitris Rallis Legia Actif 113 / 105 40% 1 10.02.2027 -
Ejike Opara Vitoria Guimaraes Actif 108 / 117 40% 2 29.01.2027 -
Michael Noumon Heart of Lions Actif 87 / 77 40% 1 28.01.2027 -
Xavier Biscayzacú Defensor Sporting Actif 129 / 131 40% 2 25.01.2027 -
Sergey Gaiduk Salyut Actif 77 / 83 40% 1 23.01.2027 -
Umar Abubakar Famalicao Actif 85 / 102 40% 1 23.01.2027 -
Adnan Courtois KV Oostende Actif 115 / 142 40% 5 13.01.2027 -
Trévis Dago Stade Lavallois Actif 113 / 113 40% 3 13.01.2027 -
Rayan Kolli Queens Park Rangers Actif 107 / 117 40% 2 03.01.2027 -
Lucca Prior Fortaleza Perdu 106 / 115 76% 1 21.12.2026 Approuver
Nicolás Azambuja Danubio Actif 112 / 126 40% 1 20.12.2026 -
Jalal Abdullai Molde Actif 114 / 114 40% 1 16.12.2026 -
Patrick Preciado Deportivo Pasto Actif 103 / 104 40% 1 07.12.2026 -
Vinícius Lira Santos Actif 113 / 124 40% 1 30.11.2026 -
Luís Guilherme Sporting CP Actif 131 / 130 40% 1 30.11.2026 -
Duarte Cunha Porto Actif 86 / 101 40% 1 30.11.2026 -
Luccas Paraízo Leixões Actif 98 / 95 40% 4 29.11.2026 -
Martín Tejón Maritimo Actif 115 / 117 40% 4 29.11.2026 -
Renato Kayser Vitória Actif 124 / 125 40% 3 28.11.2026 -
Giorgos Koutsias Famalicao Actif 121 / 110 40% 4 28.11.2026 -
Pablo Fernández Leiria Actif 102 / 118 40% 1 28.11.2026 -
Juan Muñoz Leiria Actif 119 / 120 40% 8 27.11.2026 -
Dylan Nandín Arouca Actif 115 / 111 40% 4 27.11.2026 -
Raúl Alcaina Penafiel Actif 105 / 97 40% 4 26.11.2026 -
Marko Livaja Hajduk Split Actif 129 / 129 40% 1 26.11.2026 -
Alexandre Duville-Parsemain Moreirense Actif 101 / 118 40% 4 20.11.2026 -
Ángel Sepúlveda Guadalajara Actif 119 / 114 40% 3 20.11.2026 -
Mousa Meunier KV Oostende Actif 126 / 136 40% 2 20.11.2026 -
Mika Lusitânia Lourosa Actif 112 / 102 40% 4 19.11.2026 -
Santiago Rodríguez Gimnasia y Esgrima Actif 118 / 122 40% 6 19.11.2026 -
Anthony Carter Vizela Actif 108 / 104 40% 2 19.11.2026 -
Lucas Duarte Felgueiras Actif 105 / 111 40% 3 18.11.2026 -
Renzo López Ceará Actif 116 / 122 40% 1 18.11.2026 -
Assad Al Hamlawi Universitatea Craiova Actif 118 / 123 40% 2 17.11.2026 -
Zé Leite Oliveirense Actif 119 / 105 40% 6 16.11.2026 -
Gustavo Silva Juventude Actif 127 / 117 40% 1 16.11.2026 -
Alejandro Piedrahita Deportivo Pereira Actif 124 / 127 40% 5 15.11.2026 -
Nicolás Fernández Belgrano Refusé 132 / 133 40% 7 15.11.2026 -
Yassin Fortuné Vizela Actif 97 / 105 40% 2 15.11.2026 -
Camilo Durán Bloemfontein Celtic Actif 122 / 112 40% 4 13.11.2026 -
Romarinho FC Nordsjaelland Actif 122 / 115 40% 5 12.11.2026 Observer
Denis Bouanga Los Angeles Football Club Actif 133 / 136 40% 1 12.11.2026 -
Alisson Safira Juventude Refusé 123 / 126 40% 1 12.11.2026 -
Anthony Lozano Santos Laguna Actif 117 / 117 40% 3 11.11.2026 -
Peter Shalulile Mamelodi Sundowns Actif 125 / 124 40% 6 08.11.2026 -
Rui Pedro Chaves Actif 112 / 117 40% 4 05.11.2026 -
Alexander Díaz Deportivo Riestra Actif 116 / 117 40% 2 05.11.2026 -
Lucas Passerini Belgrano Actif 122 / 116 40% 3 05.11.2026 -
Tomané Tondela Actif 102 / 116 40% 2 04.11.2026 -
Kévin Zohi Torreense Actif 122 / 112 40% 6 04.11.2026 -
Antoine Griezmann Orlando City Actif 159 / 147 40% 4 01.11.2026 -
Jonás Acevedo Instituto Actif 119 / 115 40% 2 31.10.2026 -
Héctor Hernández Gil Vicente Actif 119 / 130 40% 1 31.10.2026 -
Keagan Mothiba SuperSport United Actif 121 / 113 40% 3 28.10.2026 -
Carles Gil New England Revolution Actif 136 / 129 40% 3 28.10.2026 -
Mohammed Bouldini Académico de Viseu Actif 122 / 119 40% 3 27.10.2026 -
Jhonatan Candia Barracas Central Actif 128 / 119 40% 2 26.10.2026 -
Brayan León Mamelodi Sundowns Actif 116 / 125 40% 1 26.10.2026 -
Alan Pinheiro Zadar Actif 92 / 102 40% 1 25.10.2026 -
Gabriel Novaes Nacional Actif 111 / 107 40% 1 22.10.2026 -
Diber Cambindo Leon Actif 136 / 132 40% 2 21.10.2026 -
Lucas Moura Sport Recife Actif 142 / 135 40% 2 20.10.2026 -
Tomás Molina Argentinos Juniors Actif 126 / 121 40% 2 20.10.2026 -
Jorge Obregón Deportivo Pasto Actif 114 / 110 40% 2 19.10.2026 -
Jefry Zapata Once Caldas Actif 122 / 119 40% 1 17.10.2026 -
Ruyery Blanco Alianza Petrolera Actif 109 / 108 40% 2 15.10.2026 -
André Lacximicant Estoril Praia Actif 113 / 104 40% 2 15.10.2026 -
Gustavo Torres Atletico Nacional Actif 122 / 113 40% 3 14.10.2026 -
Andrey Estupiñán Millonarios Actif 120 / 114 40% 1 14.10.2026 -
Yann Kitala Vizela Actif 98 / 100 40% 2 13.10.2026 -
Negueba Mirassol Actif 131 / 121 40% 1 13.10.2026 -
Bryan Limbombe Maritimo Actif 114 / 100 40% 3 08.10.2026 -
Gabriel Tigrão Dijon Actif 98 / 113 40% 1 06.10.2026 -
Gabriel Barbosa Farense Actif 110 / 118 40% 3 04.10.2026 -
Miguel Falé Pacos de Ferreira Actif 93 / 106 40% 1 04.10.2026 -
Luan Santos Imotski Actif 90 / 86 40% 1 03.10.2026 -
Franco Fagúndez Estudiantes Actif 118 / 111 40% 1 03.10.2026 -
Jáder Obrian Santa Fe Actif 116 / 115 40% 1 02.10.2026 -
Nélson Oliveira Vitoria Guimaraes Actif 124 / 110 40% 3 30.09.2026 -
Michael Barrios Once Caldas Actif 119 / 124 40% 2 30.09.2026 -
Alfredo Morelos Atletico Nacional Actif 128 / 129 40% 3 30.09.2026 -
Florián Monzón Atlas Actif 120 / 128 40% 1 26.09.2026 -
Mo Dauda Portimonense Actif 112 / 96 40% 2 25.09.2026 -
Leonardo Castro Millonarios Actif 120 / 115 40% 2 23.09.2026 -
Leandro Díaz Atlético Tucumán Actif 119 / 117 40% 1 23.09.2026 -
Arthur Caike Anderlecht Actif 108 / 121 40% 2 19.09.2026 -
Justo Giani Universidad Catolica Actif 125 / 123 40% 1 19.09.2026 -
Jair Silva Leiria Actif 119 / 100 40% 2 18.09.2026 -
Leandro Suhr Boston River Actif 119 / 122 40% 2 17.09.2026 -
Jorge Aguirre Torreense Actif 110 / 108 40% 2 16.09.2026 -
Jorge Meireles AVS Actif 119 / 123 40% 4 14.09.2026 -
Korede Osundina Casa Pia Actif 104 / 123 40% 2 13.09.2026 -
Rossi Young Boys Actif 123 / 121 40% 1 13.09.2026 -
Edwar López Deportes Tolima Actif 112 / 117 40% 1 13.09.2026 -
Léo Bonatini Brondby Actif 125 / 112 40% 5 12.09.2026 -
Paulinho Toluca Actif 140 / 147 40% 3 11.09.2026 -
Brian White Vancouver Whitecaps Actif 126 / 114 40% 1 09.09.2026 -
Alexandre Guedes Maritimo Actif 113 / 115 40% 1 08.09.2026 -
Michael Vadulli Audax Italiano Actif 113 / 105 40% 1 08.09.2026 -
Fernando Karanga Dinamo Moscow Actif 106 / 111 40% 3 07.09.2026 -
Myrto Uzuni Austin FC Actif 142 / 122 40% 1 06.09.2026 -
Juan Cruz de los Santos Nacional Actif 121 / 129 40% 1 05.09.2026 -
Carlos Eduardo Gil Vicente Actif 99 / 117 40% 1 03.09.2026 -
Marcos Paulo Juventude Actif 125 / 118 40% 2 31.08.2026 -
Ianis Stoica Estrela da Amadora Actif 120 / 106 40% 1 30.08.2026 -
Álex Arce Independiente Rivadavia Actif 129 / 130 40% 1 30.08.2026 -
Luis Muriel Junior Actif 130 / 128 40% 1 29.08.2026 -
Gabriel Taliari Juventude Actif 118 / 124 40% 1 26.08.2026 -
João Costa Santa Clara Actif 107 / 106 40% 1 24.08.2026 -
Agdon Leixões Actif 96 / 112 40% 1 21.08.2026 -
Ismael Díaz Leon Actif 130 / 124 40% 2 19.08.2026 -
Henry Addo Tondela Actif 101 / 103 40% 1 19.08.2026 -
Alípio Hatayspor Actif 98 / 115 40% 1 18.08.2026 -
Diego Duarte Nacional Actif 113 / 105 40% 1 16.08.2026 -
Luis Amarilla Cerro Porteno Actif 125 / 114 40% 1 14.08.2026 -
Hamilton AVS Actif 114 / 111 40% 1 14.08.2026 -
Khayon Edwards Estoril Praia Actif 100 / 115 40% 1 12.08.2026 -
Vinícius Lopes Santa Clara Actif 112 / 108 40% 2 11.08.2026 -
Matija Mitrović Vitoria Guimaraes Actif 104 / 119 40% 1 08.08.2026 -
Cédric Nuozzi Alverca Actif 101 / 117 40% 1 08.08.2026 -
Diego Dorregaray Farense Actif 98 / 111 40% 1 08.08.2026 -
João Vasco Lusitânia Lourosa Actif 104 / 99 40% 1 08.08.2026 -
Chris Wood Nottingham Forest Actif 144 / 144 40% 1 06.08.2026 -
José Bica Leixões Actif 97 / 99 40% 1 04.08.2026 -
Xavi Sintes Estoril Praia Actif 115 / 112 40% 1 01.08.2026 -
Pedro Amaral Rio Ave Actif 126 / 117 40% 1 01.08.2026 -
Christian Marques Tondela Actif 119 / 124 40% 1 01.08.2026 -